Terminal Aerodrome Forecast
Issued by NWS Twin Cities, MN

Home | Current Version | Previous Version | Graphics & Text | Print | Product List | Glossary On
Versions: 1 2 3 4 5 6 7 8 9 10 11 12 13 14 15 16 17 18 19 20 21 22 23 24
000
FTUS43 KMPX 262050 AAA
TAFEAU
TAF AMD
KEAU 262050Z 2621/2718 01007KT 5SM -RA BR SCT012 BKN025 OVC050
     FM270000 33008KT 4SM -RA BR OVC007
     FM270500 30007KT P6SM -RA OVC012
     FM271000 26007KT P6SM BKN120
     FM271500 27010KT P6SM SKC=

USA.gov is the U.S. government's official web portal to all federal, state and local government web resources and services.